Accueil
METAR-TAF:

METAR-TAF

Aéroports :

Ndjamena, Tchad

Aéroport international de Ndjamena

latitude: 12-08N, longitude: 015-02E, altitude: 295 m

Observation

Le bulletin a été fait il y a 32 minutes, à 03:00 UTC
Vent 7 kt de est/nord-est
Température 26°C
Humidité 16%
Pression 1010 hPa
Visibilité 10 km ou plus
pas de nuages en-dessous de 1500 mètres et pas de cumulonimbus.

METAR: FTTJ 260300Z 06007KT CAVOK 26/M02 Q1010 NOSIG

Heure: 04:32 (03:32 UTC)

Prévision

Le bulletin a été fait il y a 4 heures et 32 minutes, à 23:00 UTC
Prévision valable du 26 à 00 UTC au 27 à 06 UTC
Vent 12 kt de est/nord-est
Visibilité 10 km ou plus
pas de nuages en-dessous de 1500 mètres et pas de cumulonimbus.
Evoluant progressivement
du 26 à 18 UTC au 26 à 20 UTC
Visibilité: 2000 m
poussière généralisée

TAF: FTTJ 252300Z 2600/2706 06012KT CAVOK BECMG 2618/2620 2000 DU

Observations et prévisions météorologiques de plus de 4000 aéroports (messages METAR et TAF).

Les stations disponibles sont représentées par des disques jaunes et rouges sur la carte.

Passer la souris dessus pour voir le nom de la station.

Cliquer dessus pour voir les observations et prévisions météorologiques.

Pour changer de carte: cliquez sur les boutons verts avec une croix noire pour zoomer, sur le bouton vert avec un tiret pour effectuer un zoom arrière, ou sur les flèches vertes pour les cartes adjacentes.


METAR-TAF: